• Join FlightAware (Why Join?)
  • Login
  • US Flag 
01:46PM EDT


 

Airport Tracker/Info


-or-


 

Live Flight TrackerFlight Track Log ✈ EJA941 ✈ 06-May-2013 ✈ KAUS - KOKC

Flight Track Log - Related Links

Times and Time Zones

All times are in EDT time to prevent confusion due to time zone crossing. See the EJA941 flight status page for this flight to view local times or setup timezone preferences in your user account.

Time Position Orientation Groundspeed Altitude Reporting Facility
EDT Latitude Longitude Course Direction KTS MPH feet Rate Location/Type
08:12PM 30.0928 -97.6689 North 263 303 6,500  Level Houston Center
08:14PM 30.1875 -97.8178 306° West 324 373 12,500 2,640 Climbing Houston Center
08:15PM 30.2842 -97.8514 343° North 358 412 14,800 1,980 Climbing Houston Center
08:17PM 30.8440 -97.6617 North  Level Estimated
08:17PM 30.4869 -97.9158 345° North 377 434 18,800  Level Houston Center
08:18PM 30.5931 -97.9497 345° North 387 445 20,800 1,980 Climbing Houston Center
08:20PM 30.8239 -97.9142 North 418 481 24,900 2,040 Climbing Fort Worth Center
08:21PM 30.9431 -97.8736 16° North 433 498 27,000 1,260 Climbing Fort Worth Center
08:23PM 31.2003 -97.7828 17° North 474 545 29,000 660 Climbing Houston Center
08:24PM 31.3150 -97.7442 16° North 487 560 29,000  Level Fort Worth Center
08:26PM 31.5889 -97.6475 17° North 493 567 29,000  Level Fort Worth Center
08:27PM 31.7142 -97.6039 16° North 479 551 29,000  Level Fort Worth Center
08:28PM 31.8394 -97.5578 17° North 471 542 29,000  Level Fort Worth Center
08:30PM 31.9883 -97.5327 North  Level FlightAware Approximate
08:30PM 32.1231 -97.4556 North 460 529 29,000  Level Houston Center
08:31PM 32.1903 -97.4306 17° North 449 517 29,000  Level Fort Worth Center
08:32PM 32.3261 -97.3814 17° North 454 522 29,000  Level Fort Worth Center
08:33PM 32.4367 -97.3419 17° North 462 532 29,000  Level Fort Worth Center
08:34PM 32.5722 -97.2925 17° North 462 532 29,000  Level Fort Worth Center
08:35PM 32.6997 -97.2456 17° North 468 539 29,000  Level Fort Worth Center
08:36PM 32.8247 -97.2008 17° North 468 539 29,000  Level Fort Worth Center
08:37PM 32.9542 -97.1783 North 468 539 29,000  Level Fort Worth Center
08:38PM 33.0817 -97.1778 360° North 463 533 29,000  Level Fort Worth Center
08:39PM 33.2089 -97.1750 North 458 527 29,000  Level Fort Worth Center
08:40PM 33.3383 -97.1772 359° North 458 527 29,000  Level Fort Worth Center
08:41PM 33.4531 -97.1744 North 458 527 29,000  Level Fort Worth Center
08:42PM 33.5950 -97.1742 360° North 458 527 29,000  Level Fort Worth Center
08:43PM 33.7097 -97.1711 North 458 527 29,000 -480 Level Fort Worth Center
08:44PM 33.8475 -97.1758 358° North 458 527 28,100 -1,200 Descending Fort Worth Center
08:45PM 33.9833 -97.1731 North 458 527 26,600 -1,560 Descending Fort Worth Center
08:46PM 34.1167 -97.1753 359° North 474 545 25,000 -1,620 Descending Fort Worth Center
08:47PM 34.2483 -97.1875 356° North 474 545 23,500 -1,800 Descending Fort Worth Center
08:49PM 34.4338 -97.1934 351° North  Level FlightAware Approximate
08:50PM 34.6072 -97.3253 351° North 451 519 18,000  Level Fort Worth Center
08:51PM 34.7242 -97.3681 343° North 441 507 16,100 -1,980 Descending Fort Worth Center
08:52PM 34.8347 -97.4111 342° North 435 501 14,100 -2,040 Descending Fort Worth Center
08:53PM 34.9369 -97.4514 342° North 408 470 12,100 -2,040 Descending Fort Worth Center
08:53PM 34.9744 -97.4667 342° North 362 417 11,300 -2,040 Descending Fort Worth Center
08:54PM 35.0286 -97.4869 343° North 372 428 10,100 -1,380 Descending Fort Worth Center
08:54PM 35.0578 -97.4997 340° North 304 350 9,900 -1,140 Descending Fort Worth Center
08:55PM 35.1017 -97.5150 344° North 321 369 9,000 -1,740 Descending Fort Worth Center
08:55PM 35.1308 -97.5278 340° North 259 298 8,200 -2,580 Descending Fort Worth Center
08:56PM 35.1725 -97.5431 343° North 280 322 6,400 -2,340 Descending Fort Worth Center
08:57PM 35.2642 -97.5814 341° North 242 278 3,600 -1,860 Descending Fort Worth Center
08:58PM 35.3019 -97.5917 347° North 244 281 2,800 -1,140 Descending Fort Worth Center
08:59PM 35.3561 -97.5917 360° North 214 246 1,800 -780 Descending Fort Worth Center
09:00PM 35.3997 -97.5994 352° North 183 211 1,300 -540 Descending Fort Worth Center